Cranham, United Kingdom
Current Conditions -  °F | °C
As of 2:50 PM on Saturday 25 Oct 2014 (Local Time) from EGLC Reporting Station
Broken Clouds Broken Clouds  
Wind Chill: 16°   Ceiling: 4000
Heat Index: 16°   Visibility: 6mi
Dew Point:   Wind: 13mph
Humidity: 52%   Direction: 240°WSW
Pressure: 30.06"   Gusts: NA
Location:  51.57°N, 0.27°E
Report Text: EGLC 251350Z AUTO 24011KT 9999 BKN040/// 16/06 Q1018
Loading
Personal Weather Stations






























Interactive Weather Map
Tropical Storm Tracking
New forecast layout! Learn more

10-Day Weather Forecast

Advertisements
Track Severe Weather on mobile